createdAt,value
2019-04-16T00:00:50.384Z,5.76
2019-04-16T00:02:52.446Z,5.68
2019-04-16T00:04:49.978Z,5.60
2019-04-16T00:06:50.165Z,5.49
2019-04-16T00:08:50.333Z,5.36
2019-04-16T00:10:50.340Z,5.26
2019-04-16T00:12:50.418Z,5.14
2019-04-16T00:14:50.463Z,5.09
2019-04-16T00:16:50.580Z,5.05
2019-04-16T00:19:06.766Z,5.06
2019-04-16T00:20:50.605Z,5.16
2019-04-16T00:22:49.747Z,5.20
2019-04-16T00:24:49.751Z,5.23
2019-04-16T00:26:49.975Z,5.26
2019-04-16T00:28:49.994Z,5.27
2019-04-16T00:30:50.120Z,5.27
2019-04-16T00:32:50.146Z,5.22
2019-04-16T00:34:50.508Z,5.18
2019-04-16T00:36:50.673Z,5.17
2019-04-16T00:38:54.889Z,5.16
2019-04-16T00:40:50.337Z,5.17
2019-04-16T00:42:50.330Z,5.17
2019-04-16T00:44:50.407Z,5.14
2019-04-16T00:46:50.585Z,5.11
2019-04-16T00:48:50.667Z,5.13
2019-04-16T00:50:50.566Z,5.13
2019-04-16T00:52:50.684Z,5.05
2019-04-16T00:54:49.719Z,5.01
2019-04-16T00:56:49.986Z,5.07
2019-04-16T00:58:53.339Z,5.09
2019-04-16T01:00:50.393Z,5.07
2019-04-16T01:02:50.416Z,5.02
2019-04-16T01:04:49.927Z,4.96
2019-04-16T01:06:50.171Z,4.86
2019-04-16T01:08:55.574Z,4.85
2019-04-16T01:10:50.631Z,4.83
2019-04-16T01:12:49.849Z,4.81
2019-04-16T01:14:49.788Z,4.79
2019-04-16T01:16:50.068Z,4.77
2019-04-16T01:18:50.274Z,4.78
2019-04-16T01:20:50.434Z,4.77
2019-04-16T01:22:50.631Z,4.77
2019-04-16T01:24:52.899Z,4.77
2019-04-16T01:26:50.332Z,4.78
2019-04-16T01:28:50.461Z,4.82
2019-04-16T01:30:50.561Z,4.78
2019-04-16T01:32:50.601Z,4.74
2019-04-16T01:34:50.682Z,4.68
2019-04-16T01:36:55.135Z,4.66
2019-04-16T01:38:50.173Z,4.67
2019-04-16T01:40:51.180Z,4.66
2019-04-16T01:42:55.505Z,4.65
2019-04-16T01:44:50.506Z,4.68
2019-04-16T01:46:49.779Z,4.68
2019-04-16T01:48:49.734Z,4.69
2019-04-16T01:50:49.768Z,4.65
2019-04-16T01:52:50.795Z,4.56
2019-04-16T01:54:55.825Z,4.51
2019-04-16T01:56:49.987Z,4.48
2019-04-16T01:58:50.027Z,4.43
2019-04-16T02:00:50.165Z,4.42
2019-04-16T02:02:50.214Z,4.35
2019-04-16T02:04:53.044Z,4.33
2019-04-16T02:06:50.212Z,4.32
2019-04-16T02:08:49.782Z,4.33
2019-04-16T02:10:49.762Z,4.32
2019-04-16T02:12:49.916Z,4.34
2019-04-16T02:14:51.394Z,4.32
2019-04-16T02:16:50.512Z,4.27
2019-04-16T02:18:50.635Z,4.26
2019-04-16T02:20:49.677Z,4.21
2019-04-16T02:22:49.716Z,4.10
2019-04-16T02:24:49.777Z,4.04
2019-04-16T02:26:55.707Z,4.00
2019-04-16T02:28:49.860Z,3.94
2019-04-16T02:30:49.895Z,3.82
2019-04-16T02:32:50.179Z,3.74
2019-04-16T02:34:50.689Z,3.72
2019-04-16T02:36:49.994Z,3.68
2019-04-16T02:38:53.985Z,3.64
2019-04-16T02:40:53.672Z,3.63
2019-04-16T02:42:50.678Z,3.63
2019-04-16T02:44:50.723Z,3.79
2019-04-16T02:46:50.078Z,3.83
2019-04-16T02:48:52.050Z,3.91
2019-04-16T02:50:50.145Z,3.96
2019-04-16T02:52:52.897Z,3.99
2019-04-16T02:54:49.903Z,4.01
2019-04-16T02:56:53.320Z,4.01
2019-04-16T02:58:50.458Z,4.00
2019-04-16T03:00:51.073Z,3.96
2019-04-16T03:02:54.748Z,3.95
2019-04-16T03:04:49.755Z,3.87
2019-04-16T03:06:49.960Z,3.82
2019-04-16T03:08:50.025Z,3.74
2019-04-16T03:10:50.179Z,3.59
2019-04-16T03:12:53.152Z,3.53
2019-04-16T03:14:50.275Z,3.37
2019-04-16T03:16:50.515Z,3.34
2019-04-16T03:18:50.649Z,3.32
2019-04-16T03:20:56.847Z,3.25
2019-04-16T03:22:49.973Z,3.18
2019-04-16T03:24:49.973Z,3.12
2019-04-16T03:26:51.500Z,3.06
2019-04-16T03:28:50.565Z,3.02
2019-04-16T03:30:50.598Z,2.90
2019-04-16T03:32:49.846Z,2.88
2019-04-16T03:34:54.305Z,2.88
2019-04-16T03:36:50.433Z,2.86
2019-04-16T03:38:50.513Z,2.84
2019-04-16T03:40:50.646Z,2.80
2019-04-16T03:42:49.939Z,2.70
2019-04-16T03:44:50.029Z,2.63
2019-04-16T03:46:50.135Z,2.59
2019-04-16T03:48:56.642Z,2.49
2019-04-16T03:50:50.604Z,2.45
2019-04-16T03:52:50.677Z,2.41
2019-04-16T03:54:54.882Z,2.41
2019-04-16T03:56:50.154Z,2.41
2019-04-16T03:58:50.260Z,2.41
2019-04-16T04:00:50.356Z,2.41
2019-04-16T04:02:55.612Z,2.43
2019-04-16T04:04:49.945Z,2.43
2019-04-16T04:06:50.089Z,2.35
2019-04-16T04:08:53.584Z,2.30
2019-04-16T04:10:50.570Z,2.30
2019-04-16T04:12:50.655Z,2.24
2019-04-16T04:14:55.315Z,2.24
2019-04-16T04:16:50.515Z,2.10
2019-04-16T04:18:50.607Z,2.08
2019-04-16T04:20:51.255Z,2.09
2019-04-16T04:22:50.260Z,2.08
2019-04-16T04:24:50.283Z,2.06
2019-04-16T04:26:49.864Z,2.07
2019-04-16T04:28:52.866Z,2.02
2019-04-16T04:30:49.911Z,2.01
2019-04-16T04:32:49.899Z,2.02
2019-04-16T04:34:50.553Z,2.09
2019-04-16T04:36:49.865Z,2.09
2019-04-16T04:38:49.970Z,2.10
2019-04-16T04:40:51.870Z,2.09
2019-04-16T04:42:49.916Z,2.09
2019-04-16T04:44:50.042Z,2.11
2019-04-16T04:46:50.227Z,2.13
2019-04-16T04:49:00.508Z,2.18
2019-04-16T04:50:50.516Z,2.19
2019-04-16T04:52:50.525Z,2.20
2019-04-16T04:54:55.065Z,2.22
2019-04-16T04:56:50.216Z,2.23
2019-04-16T04:58:50.255Z,2.26
2019-04-16T05:00:50.288Z,2.31
2019-04-16T05:02:50.442Z,2.34
2019-04-16T05:04:53.430Z,2.37
2019-04-16T05:06:50.623Z,2.47
2019-04-16T05:08:49.684Z,2.55
2019-04-16T05:11:03.265Z,2.61
2019-04-16T05:12:54.005Z,2.69
2019-04-16T05:14:50.127Z,2.74
2019-04-16T05:16:50.347Z,2.83
2019-04-16T05:18:50.426Z,2.94
2019-04-16T05:20:50.533Z,3.03
2019-04-16T05:22:58.134Z,3.09
2019-04-16T05:24:50.297Z,3.21
2019-04-16T05:26:50.534Z,3.32
2019-04-16T05:28:50.626Z,3.41
2019-04-16T05:30:53.419Z,3.57
2019-04-16T05:32:50.438Z,3.67
2019-04-16T05:34:49.890Z,3.81
2019-04-16T05:36:50.446Z,3.98
2019-04-16T05:38:55.435Z,4.10
2019-04-16T05:40:50.516Z,4.18
2019-04-16T05:42:59.620Z,4.41
2019-04-16T05:44:49.745Z,4.50
2019-04-16T05:46:49.974Z,4.7
2019-04-16T05:48:54.820Z,4.8
2019-04-16T05:50:49.902Z,4.8
2019-04-16T05:52:50.040Z,4.9
2019-04-16T05:54:50.098Z,5.0
2019-04-16T05:56:55.808Z,5.1
2019-04-16T05:58:49.805Z,5.2
2019-04-16T06:00:49.882Z,5.2
2019-04-16T06:02:51.078Z,5.3
2019-04-16T06:04:50.440Z,5.4
2019-04-16T06:06:49.825Z,5.5
2019-04-16T06:08:49.919Z,5.5
2019-04-16T06:10:51.469Z,5.7
2019-04-16T06:12:50.584Z,5.8
2019-04-16T06:14:54.302Z,5.9
2019-04-16T06:16:53.323Z,6.0
2019-04-16T06:18:50.588Z,6.2
2019-04-16T06:20:54.022Z,6.2
2019-04-16T06:22:50.082Z,6.3
2019-04-16T06:24:50.326Z,6.4
2019-04-16T06:26:50.512Z,6.5
2019-04-16T06:29:00.407Z,6.5
2019-04-16T06:30:50.460Z,6.7
2019-04-16T06:32:50.526Z,6.8
2019-04-16T06:34:49.844Z,6.9
2019-04-16T06:36:50.296Z,7.1
2019-04-16T06:38:50.276Z,7.1
2019-04-16T06:40:50.393Z,7.1
2019-04-16T06:42:54.991Z,7.2
2019-04-16T06:44:49.955Z,7.3
2019-04-16T06:46:50.138Z,7.5
2019-04-16T06:48:50.220Z,7.6
2019-04-16T06:50:50.279Z,7.6
2019-04-16T06:52:50.445Z,7.7
2019-04-16T06:54:50.554Z,7.8
2019-04-16T06:56:50.774Z,7.9
2019-04-16T06:58:58.264Z,8.0
2019-04-16T07:00:50.299Z,8.0
2019-04-16T07:03:03.178Z,8.2
2019-04-16T07:04:50.042Z,8.3
2019-04-16T07:06:50.371Z,8.3
2019-04-16T07:08:51.108Z,8.4
2019-04-16T07:10:50.240Z,8.5
2019-04-16T07:12:50.794Z,8.6
2019-04-16T07:14:50.076Z,8.7
2019-04-16T07:16:50.261Z,8.7
2019-04-16T07:18:50.312Z,8.9
2019-04-16T07:20:50.375Z,9.0
2019-04-16T07:22:53.803Z,9.1
2019-04-16T07:24:50.136Z,9.2
2019-04-16T07:26:50.480Z,9.2
2019-04-16T07:28:50.811Z,9.3
2019-04-16T07:30:50.306Z,9.4
2019-04-16T07:32:50.378Z,9.5
2019-04-16T07:34:49.792Z,9.6
2019-04-16T07:36:50.068Z,9.6
2019-04-16T07:38:50.203Z,9.8
2019-04-16T07:40:50.331Z,9.9
2019-04-16T07:42:59.345Z,10.0
2019-04-16T07:44:50.470Z,10.0
2019-04-16T07:46:49.764Z,10.0
2019-04-16T07:48:55.788Z,10.2
2019-04-16T07:50:53.343Z,10.2
2019-04-16T07:52:50.465Z,10.4
2019-04-16T07:54:49.798Z,10.4
2019-04-16T07:56:49.977Z,10.6
2019-04-16T07:58:49.958Z,10.6
2019-04-16T08:00:50.145Z,10.7
2019-04-16T08:02:54.896Z,10.7
2019-04-16T08:04:50.368Z,10.8
2019-04-16T08:06:50.545Z,10.8
2019-04-16T08:08:50.568Z,11.0
2019-04-16T08:10:50.567Z,11.0
2019-04-16T08:12:50.613Z,11.0
2019-04-16T08:14:50.617Z,11.1
2019-04-16T08:16:49.787Z,11.2
2019-04-16T08:18:49.750Z,11.3
2019-04-16T08:21:12.448Z,11.4
2019-04-16T08:22:50.442Z,11.4
2019-04-16T08:24:50.419Z,11.5
2019-04-16T08:26:50.663Z,11.6
2019-04-16T08:28:49.756Z,11.7
2019-04-16T08:30:49.742Z,11.7
2019-04-16T08:32:50.042Z,11.7
2019-04-16T08:34:50.468Z,11.8
2019-04-16T08:36:49.720Z,11.8
2019-04-16T08:38:49.723Z,11.9
2019-04-16T08:40:49.839Z,12.0
2019-04-16T08:42:49.936Z,12.0
2019-04-16T08:44:49.945Z,12.1
2019-04-16T08:46:50.119Z,12.2
2019-04-16T08:48:54.836Z,12.3
2019-04-16T08:50:49.889Z,12.4
2019-04-16T08:52:49.894Z,12.4
2019-04-16T08:54:55.217Z,12.5
2019-04-16T08:56:50.390Z,12.6
2019-04-16T08:58:50.369Z,12.6
2019-04-16T09:00:50.614Z,12.7
2019-04-16T09:02:50.606Z,12.7
2019-04-16T09:04:50.333Z,12.8
2019-04-16T09:06:50.479Z,12.9
2019-04-16T09:08:54.035Z,13.0
2019-04-16T09:10:50.568Z,13.0
2019-04-16T09:13:05.504Z,13.0
2019-04-16T09:14:56.744Z,13.0
2019-04-16T09:16:49.954Z,13.1
2019-04-16T09:18:49.960Z,13.1
2019-04-16T09:20:50.385Z,13.2
2019-04-16T09:22:59.207Z,13.2
2019-04-16T09:24:50.334Z,13.2
2019-04-16T09:26:56.835Z,13.3
2019-04-16T09:28:50.133Z,13.3
2019-04-16T09:30:50.950Z,13.4
2019-04-16T09:32:50.013Z,13.5
2019-04-16T09:34:50.341Z,13.6
2019-04-16T09:36:50.571Z,13.6
2019-04-16T09:38:50.596Z,13.6
2019-04-16T09:40:50.151Z,13.7
2019-04-16T09:42:49.910Z,13.7
2019-04-16T09:44:49.938Z,13.8
2019-04-16T09:46:52.761Z,13.8
2019-04-16T09:48:50.580Z,13.8
2019-04-16T09:50:50.630Z,13.9
2019-04-16T09:52:56.230Z,13.9
2019-04-16T09:54:50.529Z,14.1
2019-04-16T09:56:49.778Z,14.1
2019-04-16T09:58:49.750Z,14.1
2019-04-16T10:00:49.910Z,14.2
2019-04-16T10:02:49.994Z,14.3
2019-04-16T10:04:50.392Z,14.3
2019-04-16T10:06:50.601Z,14.4
2019-04-16T10:08:49.785Z,14.4
2019-04-16T10:10:49.860Z,14.5
2019-04-16T10:12:50.041Z,14.5
2019-04-16T10:14:50.107Z,14.5
2019-04-16T10:16:50.359Z,14.5
2019-04-16T10:18:50.398Z,14.6
2019-04-16T10:20:50.505Z,14.7
2019-04-16T10:22:50.657Z,14.7
2019-04-16T10:24:50.749Z,14.7
2019-04-16T10:26:50.500Z,14.8
2019-04-16T10:28:50.576Z,14.8
2019-04-16T10:30:50.720Z,14.8
2019-04-16T10:32:49.853Z,14.8
2019-04-16T10:34:50.368Z,19.19
2019-04-16T10:36:50.629Z,15.0
2019-04-16T10:38:49.785Z,15.0
2019-04-16T10:40:49.887Z,15.1
2019-04-16T10:42:49.901Z,15.2
2019-04-16T10:44:50.038Z,15.2
2019-04-16T10:46:50.667Z,15.2
2019-04-16T10:48:49.812Z,15.2
2019-04-16T10:50:49.895Z,15.3
2019-04-16T10:52:56.897Z,15.3
2019-04-16T10:54:50.106Z,15.3
2019-04-16T10:56:50.308Z,15.4
2019-04-16T10:58:50.374Z,15.4
2019-04-16T11:00:50.035Z,15.5
2019-04-16T11:02:50.180Z,15.5
2019-04-16T11:04:50.639Z,15.6
2019-04-16T11:06:50.720Z,15.5
2019-04-16T11:08:49.866Z,15.6
2019-04-16T11:10:50.020Z,15.6
2019-04-16T11:12:50.218Z,15.6
2019-04-16T11:14:50.305Z,15.7
2019-04-16T11:16:50.569Z,15.8
2019-04-16T11:18:50.748Z,15.8
2019-04-16T11:20:49.862Z,15.8
2019-04-16T11:22:49.989Z,15.9
2019-04-16T11:24:50.175Z,16.0
2019-04-16T11:26:50.401Z,16.0
2019-04-16T11:28:50.419Z,16.0
2019-04-16T11:30:50.512Z,16.0
2019-04-16T11:32:53.876Z,16.0
2019-04-16T11:34:50.460Z,16.0
2019-04-16T11:36:50.612Z,16.1
2019-04-16T11:38:49.814Z,16.2
2019-04-16T11:40:50.062Z,16.3
2019-04-16T11:42:50.223Z,16.3
2019-04-16T11:44:50.896Z,16.2
2019-04-16T11:46:50.335Z,16.3
2019-04-16T11:48:50.905Z,16.4
2019-04-16T11:50:50.042Z,16.4
2019-04-16T11:52:50.235Z,16.4
2019-04-16T11:54:50.510Z,16.4
2019-04-16T11:56:49.960Z,16.5
2019-04-16T11:58:50.485Z,16.5
2019-04-16T12:00:51.027Z,16.6
2019-04-16T12:02:50.299Z,16.6
2019-04-16T12:04:49.943Z,16.6
2019-04-16T12:06:50.386Z,16.7
2019-04-16T12:08:50.614Z,16.7
2019-04-16T12:10:51.015Z,16.7
2019-04-16T12:12:50.265Z,16.8
2019-04-16T12:14:50.532Z,16.9
2019-04-16T12:16:50.970Z,17.0
2019-04-16T12:18:50.146Z,17.0
2019-04-16T12:20:50.429Z,16.9
2019-04-16T12:22:49.971Z,17.0
2019-04-16T12:24:50.309Z,17.0
2019-04-16T12:26:50.691Z,17.2
2019-04-16T12:28:50.075Z,17.2
2019-04-16T12:30:50.549Z,17.2
2019-04-16T12:32:50.782Z,17.3
2019-04-16T12:34:52.047Z,17.3
2019-04-16T12:36:50.535Z,17.4
2019-04-16T12:38:50.771Z,17.4
2019-04-16T12:40:50.437Z,17.4
2019-04-16T12:42:50.837Z,17.4
2019-04-16T12:44:50.483Z,17.4
2019-04-16T12:46:50.867Z,17.5
2019-04-16T12:48:50.250Z,17.5
2019-04-16T12:50:50.628Z,17.5
2019-04-16T12:52:56.224Z,17.5
2019-04-16T12:54:50.615Z,17.6
2019-04-16T12:56:50.570Z,17.6
2019-04-16T12:58:51.758Z,17.6
2019-04-16T13:00:50.018Z,17.6
2019-04-16T13:02:49.834Z,17.7
2019-04-16T13:04:50.523Z,17.7
2019-04-16T13:06:50.337Z,17.8
2019-04-16T13:08:54.167Z,17.8
2019-04-16T13:10:50.350Z,17.8
2019-04-16T13:12:49.911Z,17.8
2019-04-16T13:15:02.731Z,17.8
2019-04-16T13:16:50.774Z,17.9
2019-04-16T13:18:49.953Z,17.9
2019-04-16T13:20:50.141Z,17.9
2019-04-16T13:22:49.991Z,18.0
2019-04-16T13:24:50.294Z,18.0
2019-04-16T13:26:50.787Z,18.0
2019-04-16T13:28:56.358Z,18.1
2019-04-16T13:30:50.578Z,18.1
2019-04-16T13:32:50.831Z,18.1
2019-04-16T13:34:50.811Z,18.1
2019-04-16T13:36:52.664Z,18.1
2019-04-16T13:38:49.894Z,18.2
2019-04-16T13:40:54.504Z,18.2
2019-04-16T13:42:50.743Z,18.2
2019-04-16T13:44:50.101Z,18.2
2019-04-16T13:46:50.607Z,18.2
2019-04-16T13:48:49.935Z,18.2
2019-04-16T13:50:50.092Z,18.2
2019-04-16T13:52:56.286Z,18.2
2019-04-16T13:54:50.579Z,18.2
2019-04-16T13:56:52.156Z,18.2
2019-04-16T13:58:50.362Z,18.2
2019-04-16T14:00:50.548Z,18.2
2019-04-16T14:02:52.471Z,18.2
2019-04-16T14:04:49.990Z,18.2
2019-04-16T14:06:50.445Z,18.3
2019-04-16T14:08:50.613Z,18.3
2019-04-16T14:10:50.802Z,18.4
2019-04-16T14:12:49.979Z,18.4
2019-04-16T14:14:50.698Z,18.5
2019-04-16T14:16:50.044Z,18.5
2019-04-16T14:18:50.304Z,18.6
2019-04-16T14:20:50.529Z,18.6
2019-04-16T14:22:54.616Z,18.6
2019-04-16T14:24:50.793Z,18.6
2019-04-16T14:26:50.090Z,18.6
2019-04-16T14:28:53.113Z,18.6
2019-04-16T14:30:49.903Z,18.6
2019-04-16T14:32:50.270Z,18.6
2019-04-16T14:34:50.829Z,18.6
2019-04-16T14:36:49.945Z,18.6
2019-04-16T14:38:49.964Z,18.6
2019-04-16T14:40:50.274Z,18.6
2019-04-16T14:42:58.931Z,18.6
2019-04-16T14:44:50.083Z,18.6
2019-04-16T14:46:50.391Z,18.6
2019-04-16T14:48:50.563Z,18.7
2019-04-16T14:50:50.853Z,18.7
2019-04-16T14:52:50.224Z,18.7
2019-04-16T14:54:50.613Z,18.7
2019-04-16T14:56:50.170Z,18.7
2019-04-16T14:58:50.671Z,18.7
2019-04-16T15:00:50.662Z,18.8
2019-04-16T15:02:50.449Z,18.8
2019-04-16T15:04:49.961Z,18.8
2019-04-16T15:06:54.006Z,18.8
2019-04-16T15:08:50.211Z,18.8
2019-04-16T15:10:50.420Z,18.8
2019-04-16T15:12:50.655Z,18.8
2019-04-16T15:14:50.292Z,18.8
2019-04-16T15:16:51.578Z,18.8
2019-04-16T15:18:49.863Z,18.8
2019-04-16T15:20:50.047Z,18.8
2019-04-16T15:22:50.286Z,18.9
2019-04-16T15:24:50.147Z,18.8
2019-04-16T15:26:53.891Z,18.8
2019-04-16T15:28:50.060Z,18.8
2019-04-16T15:30:50.295Z,18.8
2019-04-16T15:32:50.122Z,18.8
2019-04-16T15:34:50.694Z,18.8
2019-04-16T15:36:55.530Z,18.8
2019-04-16T15:38:50.731Z,18.8
2019-04-16T15:40:50.627Z,18.8
2019-04-16T15:42:49.910Z,18.8
2019-04-16T15:44:58.227Z,18.8
2019-04-16T15:46:50.518Z,18.8
2019-04-16T15:48:51.639Z,18.8
2019-04-16T15:50:49.883Z,18.8
2019-04-16T15:52:50.192Z,18.7
2019-04-16T15:54:50.387Z,18.7
2019-04-16T15:56:50.825Z,18.8
2019-04-16T15:58:50.543Z,18.8
2019-04-16T16:00:50.808Z,18.7
2019-04-16T16:02:49.971Z,18.6
2019-04-16T16:04:50.159Z,18.6
2019-04-16T16:06:53.609Z,18.7
2019-04-16T16:08:50.811Z,18.7
2019-04-16T16:10:50.119Z,18.7
2019-04-16T16:12:54.828Z,18.6
2019-04-16T16:14:50.042Z,18.6
2019-04-16T16:16:51.971Z,18.6
2019-04-16T16:18:50.186Z,18.6
2019-04-16T16:20:50.503Z,18.6
2019-04-16T16:22:50.813Z,18.5
2019-04-16T16:24:49.989Z,18.5
2019-04-16T16:26:50.404Z,18.5
2019-04-16T16:28:50.539Z,18.5
2019-04-16T16:30:50.688Z,18.5
2019-04-16T16:32:49.801Z,18.4
2019-04-16T16:34:50.305Z,18.4
2019-04-16T16:36:50.437Z,18.4
2019-04-16T16:38:50.543Z,18.3
2019-04-16T16:40:50.854Z,18.3
2019-04-16T16:42:49.951Z,18.3
2019-04-16T16:44:50.052Z,18.3
2019-04-16T16:46:59.103Z,18.3
2019-04-16T16:48:50.113Z,18.2
2019-04-16T16:50:52.196Z,18.3
2019-04-16T16:52:50.641Z,18.3
2019-04-16T16:54:50.628Z,18.3
2019-04-16T16:56:49.876Z,18.2
2019-04-16T16:58:49.906Z,18.2
2019-04-16T17:00:50.042Z,18.2
2019-04-16T17:02:50.113Z,18.2
2019-04-16T17:04:50.438Z,18.2
2019-04-16T17:06:50.488Z,18.2
2019-04-16T17:08:50.591Z,18.1
2019-04-16T17:10:49.702Z,18.1
2019-04-16T17:12:49.841Z,18.1
2019-04-16T17:14:49.875Z,18.0
2019-04-16T17:16:50.155Z,18.0
2019-04-16T17:18:50.191Z,17.97
2019-04-16T17:20:50.781Z,17.89
2019-04-16T17:22:49.749Z,17.85
2019-04-16T17:24:49.769Z,17.71
2019-04-16T17:26:51.080Z,17.54
2019-04-16T17:28:50.165Z,17.45
2019-04-16T17:30:50.229Z,17.35
2019-04-16T17:32:50.332Z,17.25
2019-04-16T17:34:49.707Z,17.14
2019-04-16T17:36:49.925Z,17.04
2019-04-16T17:38:49.880Z,16.92
2019-04-16T17:41:00.390Z,16.86
2019-04-16T17:42:50.368Z,16.80
2019-04-16T17:44:50.478Z,16.64
2019-04-16T17:46:51.383Z,16.52
2019-04-16T17:48:50.140Z,16.46
2019-04-16T17:50:51.751Z,16.30
2019-04-16T17:52:49.882Z,16.25
2019-04-16T17:54:50.436Z,16.10
2019-04-16T17:56:56.767Z,15.96
2019-04-16T17:58:49.849Z,15.85
2019-04-16T18:00:49.944Z,15.75
2019-04-16T18:02:49.924Z,15.56
2019-04-16T18:04:50.325Z,15.42
2019-04-16T18:06:50.496Z,15.37
2019-04-16T18:08:49.750Z,15.25
2019-04-16T18:10:50.662Z,15.13
2019-04-16T18:12:57.086Z,15.05
2019-04-16T18:14:50.501Z,14.93
2019-04-16T18:16:56.047Z,14.86
2019-04-16T18:18:50.557Z,14.80
2019-04-16T18:20:59.804Z,14.69
2019-04-16T18:22:50.061Z,14.59
2019-04-16T18:24:50.145Z,14.51
2019-04-16T18:26:50.054Z,14.38
2019-04-16T18:28:50.147Z,14.34
2019-04-16T18:30:50.656Z,14.16
2019-04-16T18:32:49.756Z,14.02
2019-04-16T18:34:50.266Z,13.95
2019-04-16T18:36:50.674Z,13.87
2019-04-16T18:38:49.738Z,13.82
2019-04-16T18:40:49.907Z,13.78
2019-04-16T18:42:50.084Z,13.76
2019-04-16T18:44:56.695Z,13.74
2019-04-16T18:46:50.117Z,13.74
2019-04-16T18:48:50.134Z,13.66
2019-04-16T18:50:50.158Z,13.62
2019-04-16T18:52:50.223Z,13.51
2019-04-16T18:54:50.328Z,13.46
2019-04-16T18:56:50.577Z,13.32
2019-04-16T18:58:50.607Z,13.29
2019-04-16T19:00:50.592Z,13.23
2019-04-16T19:02:50.686Z,13.17
2019-04-16T19:04:51.403Z,13.14
2019-04-16T19:06:50.558Z,13.13
2019-04-16T19:08:50.622Z,13.08
2019-04-16T19:10:49.712Z,13.02
2019-04-16T19:12:50.067Z,12.99
2019-04-16T19:14:50.226Z,12.93
2019-04-16T19:16:50.449Z,12.91
2019-04-16T19:18:50.502Z,12.86
2019-04-16T19:20:53.624Z,12.81
2019-04-16T19:22:50.999Z,12.78
2019-04-16T19:24:50.095Z,12.76
2019-04-16T19:26:50.306Z,12.69
2019-04-16T19:28:50.424Z,12.60
2019-04-16T19:30:50.468Z,12.60
2019-04-16T19:32:50.469Z,12.52
2019-04-16T19:34:49.904Z,12.54
2019-04-16T19:36:50.053Z,12.53
2019-04-16T19:38:50.108Z,12.48
2019-04-16T19:40:52.026Z,12.42
2019-04-16T19:42:49.999Z,12.36
2019-04-16T19:44:50.130Z,12.36
2019-04-16T19:46:54.831Z,12.27
2019-04-16T19:48:49.950Z,12.27
2019-04-16T19:50:49.934Z,12.23
2019-04-16T19:52:50.016Z,12.19
2019-04-16T19:54:50.037Z,12.14
2019-04-16T19:56:52.338Z,12.11
2019-04-16T19:58:50.331Z,12.07
2019-04-16T20:00:50.407Z,12.02
2019-04-16T20:02:50.425Z,12.02
2019-04-16T20:04:51.266Z,11.95
2019-04-16T20:06:50.410Z,11.93
2019-04-16T20:08:50.491Z,11.88
2019-04-16T20:10:50.557Z,11.87
2019-04-16T20:12:50.551Z,11.86
2019-04-16T20:14:50.679Z,11.86
2019-04-16T20:16:49.798Z,11.89
2019-04-16T20:18:51.874Z,11.90
2019-04-16T20:20:51.117Z,11.88
2019-04-16T20:22:50.199Z,11.89
2019-04-16T20:24:50.176Z,11.92
2019-04-16T20:26:50.486Z,11.87
2019-04-16T20:28:50.599Z,11.85
2019-04-16T20:31:04.840Z,11.80
2019-04-16T20:32:50.612Z,11.80
2019-04-16T20:34:49.939Z,11.78
2019-04-16T20:36:57.426Z,11.78
2019-04-16T20:38:50.440Z,11.75
2019-04-16T20:40:50.436Z,11.75
2019-04-16T20:42:50.553Z,11.73
2019-04-16T20:44:50.550Z,11.64
2019-04-16T20:46:49.825Z,11.59
2019-04-16T20:48:49.788Z,11.52
2019-04-16T20:50:59.952Z,11.49
2019-04-16T20:52:50.331Z,11.49
2019-04-16T20:54:50.379Z,11.45
2019-04-16T20:56:54.556Z,11.44
2019-04-16T20:58:50.074Z,11.44
2019-04-16T21:00:50.152Z,11.43
2019-04-16T21:02:52.088Z,11.45
2019-04-16T21:04:50.510Z,11.45
2019-04-16T21:06:49.824Z,11.48
2019-04-16T21:08:49.854Z,11.45
2019-04-16T21:10:49.949Z,11.43
2019-04-16T21:12:50.039Z,11.43
2019-04-16T21:14:55.566Z,11.41
2019-04-16T21:16:49.775Z,11.38
2019-04-16T21:18:49.823Z,11.34
2019-04-16T21:20:51.959Z,11.31
2019-04-16T21:22:49.986Z,11.32
2019-04-16T21:24:50.082Z,11.33
2019-04-16T21:26:52.106Z,11.33
2019-04-16T21:28:50.186Z,11.31
2019-04-16T21:30:50.319Z,11.29
2019-04-16T21:32:50.277Z,11.25
2019-04-16T21:34:49.715Z,11.25
2019-04-16T21:36:49.972Z,11.24
2019-04-16T21:38:50.088Z,11.26
2019-04-16T21:40:57.812Z,11.33
2019-04-16T21:42:49.944Z,11.38
2019-04-16T21:44:49.948Z,11.38
2019-04-16T21:46:58.347Z,11.43
2019-04-16T21:48:50.320Z,11.43
2019-04-16T21:50:54.426Z,11.42
2019-04-16T21:52:57.139Z,11.42
2019-04-16T21:54:50.318Z,11.42
2019-04-16T21:56:50.430Z,11.41
2019-04-16T21:58:50.672Z,11.40
2019-04-16T22:00:49.859Z,11.37
2019-04-16T22:02:50.173Z,11.37
2019-04-16T22:04:49.747Z,11.36
2019-04-16T22:06:53.612Z,11.34
2019-04-16T22:08:49.721Z,11.31
2019-04-16T22:10:49.723Z,11.33
2019-04-16T22:12:49.798Z,11.34
2019-04-16T22:14:55.998Z,11.30
2019-04-16T22:16:50.166Z,11.28
2019-04-16T22:18:50.229Z,11.26
2019-04-16T22:20:50.395Z,11.20
2019-04-16T22:22:50.518Z,11.18
2019-04-16T22:24:56.398Z,11.17
2019-04-16T22:26:50.535Z,11.17
2019-04-16T22:28:50.564Z,11.15
2019-04-16T22:30:52.521Z,11.12
2019-04-16T22:32:50.621Z,11.10
2019-04-16T22:34:50.089Z,11.07
2019-04-16T22:36:50.370Z,11.05
2019-04-16T22:38:50.463Z,11.01
2019-04-16T22:40:56.716Z,10.97
2019-04-16T22:42:49.758Z,10.91
2019-04-16T22:44:49.739Z,10.91
2019-04-16T22:46:50.257Z,10.87
2019-04-16T22:48:50.856Z,10.82
2019-04-16T22:50:49.878Z,10.81
2019-04-16T22:52:50.080Z,10.74
2019-04-16T22:54:53.445Z,10.68
2019-04-16T22:56:49.698Z,10.64
2019-04-16T22:58:50.660Z,10.64
2019-04-16T23:00:49.818Z,10.56
2019-04-16T23:02:49.839Z,10.53
2019-04-16T23:04:50.325Z,10.47
2019-04-16T23:06:50.660Z,10.44
2019-04-16T23:08:50.615Z,10.40
2019-04-16T23:10:52.406Z,10.37
2019-04-16T23:12:50.581Z,10.37
2019-04-16T23:14:50.595Z,10.33
2019-04-16T23:16:49.724Z,10.31
2019-04-16T23:18:50.360Z,10.25
2019-04-16T23:20:50.315Z,10.12
2019-04-16T23:22:50.365Z,10.11
2019-04-16T23:24:56.608Z,10.05
2019-04-16T23:26:49.808Z,10.02
2019-04-16T23:28:49.846Z,9.94
2019-04-16T23:30:52.143Z,9.88
2019-04-16T23:32:50.130Z,9.76
2019-04-16T23:34:50.657Z,9.66
2019-04-16T23:36:49.895Z,9.57
2019-04-16T23:38:49.963Z,9.53
2019-04-16T23:40:49.988Z,9.45
2019-04-16T23:42:51.247Z,9.43
2019-04-16T23:44:50.267Z,9.34
2019-04-16T23:46:50.473Z,9.28
2019-04-16T23:48:50.466Z,9.28
2019-04-16T23:50:50.566Z,9.33
2019-04-16T23:52:49.761Z,9.35
2019-04-16T23:54:49.824Z,9.16
2019-04-16T23:56:54.100Z,9.01
2019-04-16T23:58:50.212Z,8.99
